Time;durP1;ratioP1;P1;durP2;ratioP2;P2;SDS_P1;SDS_P2;PMS_P1;PMS_P2;Temp;Humidity;BMP_temperature;BMP_pressure;BME280_temperature;BME280_humidity;BME280_pressure;Samples;Min_cycle;Max_cycle;Signal;HPM_P1;HPM_P2
2023/12/03 00:00:48;;;;;;;16.30;9.40;;;;;;;-0.02;100.00;98848.88;104785;1256;60538;-53
2023/12/03 00:03:16;;;;;;;13.60;8.30;;;;;;;-0.02;100.00;98840.95;105215;1256;71761;-52
2023/12/03 00:05:44;;;;;;;12.60;8.40;;;;;;;-0.01;100.00;98844.81;105779;1254;65821;-53
2023/12/03 00:08:11;;;;;;;13.00;8.70;;;;;;;-0.01;100.00;98839.88;105791;1259;73342;-53
2023/12/03 00:10:39;;;;;;;13.80;8.70;;;;;;;-0.03;100.00;98840.97;104690;1259;60025;-54
2023/12/03 00:13:06;;;;;;;14.50;9.10;;;;;;;-0.04;100.00;98836.74;104685;1261;59681;-54
2023/12/03 00:15:34;;;;;;;15.10;10.00;;;;;;;-0.05;100.00;98840.81;105379;1254;73506;-53
2023/12/03 00:18:02;;;;;;;13.20;9.40;;;;;;;-0.06;100.00;98838.55;105146;1253;67052;-54
2023/12/03 00:20:29;;;;;;;13.60;8.50;;;;;;;-0.08;100.00;98825.52;104742;1254;72406;-53
2023/12/03 00:22:57;;;;;;;15.20;10.40;;;;;;;-0.08;100.00;98815.83;104756;1256;61298;-51
2023/12/03 00:25:24;;;;;;;14.60;9.30;;;;;;;-0.07;100.00;98838.39;104934;1258;59562;-49
2023/12/03 00:27:52;;;;;;;16.10;9.40;;;;;;;-0.06;100.00;98862.35;104954;1254;71806;-49
2023/12/03 00:30:20;;;;;;;13.20;8.60;;;;;;;-0.05;100.00;98862.17;104936;1256;68839;-53
2023/12/03 00:32:47;;;;;;;14.80;8.80;;;;;;;-0.04;100.00;98865.86;104772;1256;71346;-53
2023/12/03 00:35:15;;;;;;;18.10;9.90;;;;;;;-0.02;100.00;98878.52;104670;1259;60090;-54
2023/12/03 00:37:42;;;;;;;14.80;9.20;;;;;;;-0.01;100.00;98870.91;104858;1253;59730;-54
2023/12/03 00:40:11;;;;;;;13.40;8.60;;;;;;;0.01;100.00;98855.70;104703;1256;72058;-53
2023/12/03 00:42:38;;;;;;;15.00;8.90;;;;;;;0.02;100.00;98843.67;104977;1259;67226;-53
2023/12/03 00:45:06;;;;;;;15.60;9.50;;;;;;;0.04;100.00;98847.18;104807;1256;71415;-53
2023/12/03 00:47:33;;;;;;;15.70;9.00;;;;;;;0.05;100.00;98865.33;104961;1256;59741;-53
2023/12/03 00:50:01;;;;;;;13.00;8.50;;;;;;;0.07;100.00;98860.54;104901;1257;59692;-53
2023/12/03 00:52:29;;;;;;;11.90;8.50;;;;;;;0.08;100.00;98867.93;104737;1258;72136;-53
2023/12/03 00:54:57;;;;;;;13.00;8.20;;;;;;;0.08;100.00;98870.73;106302;1260;66825;-53
2023/12/03 00:57:24;;;;;;;13.40;9.10;;;;;;;0.08;100.00;98868.78;104957;1259;71473;-55
2023/12/03 00:59:52;;;;;;;15.20;9.90;;;;;;;0.08;100.00;98880.44;104869;1253;59777;-53
2023/12/03 01:02:19;;;;;;;16.20;9.90;;;;;;;0.10;100.00;98907.20;104744;1259;60463;-54
2023/12/03 01:04:47;;;;;;;15.40;9.10;;;;;;;0.11;100.00;98941.23;104808;1258;71848;-53
2023/12/03 01:07:14;;;;;;;13.90;8.70;;;;;;;0.13;100.00;98954.07;108853;1253;69248;-54
2023/12/03 01:09:42;;;;;;;15.30;8.80;;;;;;;0.15;100.00;98938.34;109030;1254;72783;-54
2023/12/03 01:12:09;;;;;;;13.20;8.90;;;;;;;0.17;100.00;98933.90;108964;1254;61292;-53
2023/12/03 01:14:37;;;;;;;13.80;9.40;;;;;;;0.20;100.00;98927.11;108947;1253;59109;-54
2023/12/03 01:17:04;;;;;;;15.10;8.90;;;;;;;0.25;100.00;98942.00;108953;1253;72588;-54
2023/12/03 01:19:32;;;;;;;13.40;8.70;;;;;;;0.29;100.00;98936.11;109014;1257;67368;-54
2023/12/03 01:21:59;;;;;;;15.90;10.80;;;;;;;0.32;100.00;98944.17;109023;1253;72724;-54
2023/12/03 01:24:27;;;;;;;15.60;9.10;;;;;;;0.35;100.00;98958.56;108930;1258;61203;-54
2023/12/03 01:26:55;;;;;;;15.20;9.90;;;;;;;0.39;100.00;98934.86;108902;1253;60069;-54
2023/12/03 01:29:22;;;;;;;15.50;9.50;;;;;;;0.43;100.00;98906.16;109097;1253;73760;-53
2023/12/03 01:31:50;;;;;;;15.00;9.60;;;;;;;0.47;100.00;98920.55;108972;1253;65478;-54
2023/12/03 01:34:17;;;;;;;13.60;9.80;;;;;;;0.50;100.00;98927.92;108907;1258;71478;-54
2023/12/03 01:36:44;;;;;;;14.80;8.70;;;;;;;0.53;100.00;98942.14;108802;1254;60544;-52
2023/12/03 01:39:12;;;;;;;14.30;10.20;;;;;;;0.56;100.00;98876.95;104837;1255;61192;-52
2023/12/03 01:41:40;;;;;;;16.10;10.10;;;;;;;0.60;100.00;98869.61;105897;1257;72790;-52
2023/12/03 01:44:07;;;;;;;13.50;9.20;;;;;;;0.62;100.00;98884.91;104751;1253;65032;-53
2023/12/03 01:46:35;;;;;;;15.20;9.90;;;;;;;0.64;100.00;98878.18;104589;1258;73141;-52
2023/12/03 01:49:02;;;;;;;14.30;8.90;;;;;;;0.64;100.00;98875.53;104769;1256;60533;-53
2023/12/03 01:51:30;;;;;;;13.50;10.00;;;;;;;0.63;100.00;98863.17;104868;1258;60436;-53
2023/12/03 01:53:57;;;;;;;16.50;9.10;;;;;;;0.64;100.00;98853.45;106628;1253;72754;-53
2023/12/03 01:56:25;;;;;;;13.30;8.50;;;;;;;0.68;100.00;98860.07;104556;1253;67608;-53
2023/12/03 01:58:52;;;;;;;11.30;7.50;;;;;;;0.69;100.00;98861.45;104765;1258;73141;-53
2023/12/03 02:01:20;;;;;;;12.70;8.60;;;;;;;0.69;100.00;98866.39;104807;1258;60661;-52
2023/12/03 02:03:47;;;;;;;18.00;9.20;;;;;;;0.68;100.00;98869.27;105001;1254;60381;-53
2023/12/03 02:06:15;;;;;;;13.10;9.20;;;;;;;0.67;100.00;98892.77;104704;1255;72539;-52
2023/12/03 02:08:43;;;;;;;13.20;8.60;;;;;;;0.67;100.00;98898.23;104717;1253;68870;-52
2023/12/03 02:11:10;;;;;;;11.30;8.10;;;;;;;0.67;100.00;98888.52;104894;1256;73047;-53
2023/12/03 02:13:38;;;;;;;9.10;6.90;;;;;;;0.67;100.00;98901.08;104728;1254;60815;-53
2023/12/03 02:16:06;;;;;;;11.40;7.60;;;;;;;0.68;100.00;98901.03;104837;1253;60789;-53
2023/12/03 02:18:33;;;;;;;10.20;7.70;;;;;;;0.68;100.00;98885.48;104865;1258;75962;-52
2023/12/03 02:21:01;;;;;;;11.50;7.70;;;;;;;0.69;100.00;98884.05;105323;1258;65583;-53
2023/12/03 02:23:29;;;;;;;10.30;7.20;;;;;;;0.69;100.00;98875.04;104895;1254;71464;-53
2023/12/03 02:25:57;;;;;;;10.20;7.50;;;;;;;0.69;100.00;98873.63;104650;1254;61335;-54
2023/12/03 02:28:25;;;;;;;13.00;8.60;;;;;;;0.70;100.00;98839.35;104839;1259;60479;-53
2023/12/03 02:30:52;;;;;;;11.40;7.20;;;;;;;0.72;100.00;98810.55;104695;1257;73888;-52
2023/12/03 02:33:20;;;;;;;9.10;6.60;;;;;;;0.74;100.00;98777.48;104885;1255;65640;-52
2023/12/03 02:35:47;;;;;;;10.10;7.40;;;;;;;0.74;100.00;98816.32;104779;1253;72848;-50
2023/12/03 02:38:15;;;;;;;10.60;8.00;;;;;;;0.73;100.00;98803.10;104734;1258;60796;-52
2023/12/03 02:40:43;;;;;;;10.70;7.80;;;;;;;0.73;100.00;98780.14;104934;1259;60453;-53
2023/12/03 02:43:10;;;;;;;9.60;6.90;;;;;;;0.74;100.00;98766.86;104953;1254;72648;-55
2023/12/03 02:45:38;;;;;;;11.10;7.30;;;;;;;0.76;100.00;98795.27;104830;1256;66858;-53
2023/12/03 02:48:05;;;;;;;10.60;7.40;;;;;;;0.75;100.00;98807.64;104776;1258;73134;-53
2023/12/03 02:50:33;;;;;;;9.50;6.80;;;;;;;0.74;100.00;98779.59;106165;1259;60525;-52
2023/12/03 02:53:01;;;;;;;8.20;6.40;;;;;;;0.74;100.00;98751.15;104887;1253;60556;-52
2023/12/03 02:55:29;;;;;;;10.10;7.20;;;;;;;0.74;100.00;98736.48;105181;1256;72638;-53
2023/12/03 02:57:57;;;;;;;11.40;7.40;;;;;;;0.74;100.00;98770.41;104869;1258;65615;-52
2023/12/03 03:00:24;;;;;;;7.40;6.30;;;;;;;0.73;100.00;98774.48;104990;1256;72551;-53
2023/12/03 03:02:54;;;;;;;9.50;6.40;;;;;;;0.71;100.00;98781.94;104852;1254;60573;-51
2023/12/03 03:05:21;;;;;;;9.10;6.70;;;;;;;0.71;100.00;98830.33;107160;1257;59687;-53
2023/12/03 03:07:49;;;;;;;7.30;5.90;;;;;;;0.71;100.00;98897.61;104942;1254;73089;-54
2023/12/03 03:10:16;;;;;;;9.00;6.10;;;;;;;0.70;100.00;98881.55;104726;1258;65784;-53
2023/12/03 03:12:43;;;;;;;8.40;5.80;;;;;;;0.70;100.00;98860.72;104797;1257;71461;-52
2023/12/03 03:15:11;;;;;;;8.20;5.20;;;;;;;0.70;100.00;98849.77;104953;1259;61336;-53
2023/12/03 03:17:39;;;;;;;8.00;5.80;;;;;;;0.71;100.00;98858.40;104612;1261;60334;-53
2023/12/03 03:20:07;;;;;;;8.50;6.20;;;;;;;0.72;100.00;98859.61;104643;1258;73884;-53
2023/12/03 03:22:35;;;;;;;5.70;5.00;;;;;;;0.74;100.00;98860.64;104651;1261;66836;-51
2023/12/03 03:25:03;;;;;;;6.60;4.50;;;;;;;0.76;100.00;98871.90;104880;1259;71620;-52
2023/12/03 03:27:30;;;;;;;6.40;5.40;;;;;;;0.78;100.00;98885.98;105212;1257;62042;-52
2023/12/03 03:29:58;;;;;;;7.60;6.10;;;;;;;0.79;100.00;98878.35;104758;1259;60411;-53
2023/12/03 03:32:25;;;;;;;7.40;5.40;;;;;;;0.80;100.00;98852.73;104688;1258;74023;-53
2023/12/03 03:34:53;;;;;;;7.70;5.40;;;;;;;0.81;100.00;98862.25;104633;1259;67414;-53
2023/12/03 03:37:20;;;;;;;5.80;4.90;;;;;;;0.83;100.00;98850.73;104779;1259;71460;-52
2023/12/03 03:39:48;;;;;;;7.30;5.10;;;;;;;0.84;100.00;98872.26;105003;1258;60616;-53
2023/12/03 03:42:15;;;;;;;7.20;5.10;;;;;;;0.84;100.00;98855.30;104773;1259;60617;-52
2023/12/03 03:44:43;;;;;;;7.40;4.80;;;;;;;0.84;100.00;98846.30;104833;1257;73755;-52
2023/12/03 03:47:13;;;;;;;6.40;4.70;;;;;;;0.85;100.00;98850.86;104710;1258;67646;-53
2023/12/03 03:49:41;;;;;;;5.90;4.60;;;;;;;0.86;100.00;98829.45;104815;1256;73194;-52
2023/12/03 03:52:08;;;;;;;5.30;4.10;;;;;;;0.86;100.00;98824.66;104761;1254;60442;-53
2023/12/03 03:54:40;;;;;;;6.60;5.10;;;;;;;0.86;100.00;98851.86;104754;1259;60565;-52
2023/12/03 03:57:08;;;;;;;7.30;4.70;;;;;;;0.88;100.00;98874.09;108974;1254;73932;-52
2023/12/03 03:59:36;;;;;;;7.30;5.30;;;;;;;0.88;100.00;98871.42;108993;1253;67876;-53
2023/12/03 04:02:03;;;;;;;7.50;5.00;;;;;;;0.89;100.00;98876.38;107572;1258;71333;-50
2023/12/03 04:04:31;;;;;;;8.00;5.40;;;;;;;0.90;100.00;98890.66;104766;1258;60409;-53
2023/12/03 04:06:59;;;;;;;6.80;5.20;;;;;;;0.90;100.00;98901.77;109033;1253;59994;-54
2023/12/03 04:09:27;;;;;;;9.10;5.00;;;;;;;0.91;100.00;98908.30;108967;1255;74773;-54
2023/12/03 04:11:54;;;;;;;7.30;5.60;;;;;;;0.92;100.00;98908.80;108941;1255;66921;-54
2023/12/03 04:14:22;;;;;;;7.70;5.00;;;;;;;0.94;100.00;98902.91;108957;1254;72724;-54
2023/12/03 04:16:50;;;;;;;9.20;6.30;;;;;;;0.96;100.00;98895.45;106438;1257;60530;-51
2023/12/03 04:19:17;;;;;;;7.30;6.00;;;;;;;0.97;100.00;98892.42;104864;1255;60299;-53
2023/12/03 04:21:45;;;;;;;7.80;5.60;;;;;;;0.98;100.00;98898.58;104745;1258;73998;-53
2023/12/03 04:24:12;;;;;;;8.40;5.50;;;;;;;0.99;100.00;98913.75;109040;1253;67215;-54
2023/12/03 04:26:43;;;;;;;8.60;6.20;;;;;;;1.00;100.00;98914.27;109133;1256;71441;-54
2023/12/03 04:29:11;;;;;;;6.50;5.00;;;;;;;1.01;100.00;98909.65;108855;1254;60915;-53
2023/12/03 04:31:39;;;;;;;6.60;4.80;;;;;;;1.02;100.00;98899.52;109091;1253;59966;-53
2023/12/03 04:34:07;;;;;;;7.60;5.20;;;;;;;1.04;100.00;98899.84;105368;1258;73929;-53
2023/12/03 04:36:35;;;;;;;6.00;4.60;;;;;;;1.06;100.00;98894.85;104952;1258;67522;-53
2023/12/03 04:39:04;;;;;;;7.60;5.50;;;;;;;1.07;100.00;98888.30;104561;1254;72613;-53
2023/12/03 04:41:36;;;;;;;5.90;4.90;;;;;;;1.07;100.00;98898.20;105720;1257;60541;-53
2023/12/03 04:44:06;;;;;;;7.20;4.80;;;;;;;1.07;100.00;98900.13;106601;1255;60450;-52
2023/12/03 04:46:34;;;;;;;6.30;4.30;;;;;;;1.08;100.00;98900.11;104642;1253;72708;-53
2023/12/03 04:49:02;;;;;;;5.60;4.50;;;;;;;1.08;100.00;98911.24;104798;1254;66882;-53
2023/12/03 04:51:29;;;;;;;5.60;3.80;;;;;;;1.09;100.00;98904.17;106034;1259;71482;-53
2023/12/03 04:53:57;;;;;;;6.60;5.10;;;;;;;1.10;100.00;98903.44;104769;1259;60677;-53
2023/12/03 04:56:24;;;;;;;4.40;3.20;;;;;;;1.11;100.00;98903.21;104702;1258;60579;-53
2023/12/03 04:58:52;;;;;;;5.80;4.10;;;;;;;1.13;100.00;98907.23;104862;1258;76018;-53
2023/12/03 05:01:19;;;;;;;3.60;3.20;;;;;;;1.14;100.00;98912.52;104960;1259;66730;-53
2023/12/03 05:03:46;;;;;;;5.00;3.30;;;;;;;1.15;100.00;98910.55;104782;1254;72997;-53
2023/12/03 05:06:14;;;;;;;6.10;4.20;;;;;;;1.16;100.00;98916.89;104749;1259;61352;-53
2023/12/03 05:08:42;;;;;;;5.20;3.90;;;;;;;1.17;100.00;98926.06;105033;1259;59963;-53
2023/12/03 05:11:09;;;;;;;4.00;2.80;;;;;;;1.17;100.00;98921.27;104657;1253;73933;-53
2023/12/03 05:13:37;;;;;;;3.60;3.00;;;;;;;1.18;100.00;98925.67;104745;1254;66666;-52
2023/12/03 05:16:05;;;;;;;4.60;3.50;;;;;;;1.20;100.00;98917.84;104898;1254;72775;-53
2023/12/03 05:18:32;;;;;;;4.50;3.20;;;;;;;1.22;100.00;98914.45;104708;1254;60907;-53
2023/12/03 05:21:01;;;;;;;4.40;3.50;;;;;;;1.23;100.00;98914.41;104776;1259;60534;-53
2023/12/03 05:23:28;;;;;;;4.00;2.90;;;;;;;1.23;100.00;98921.66;104881;1254;72714;-52
2023/12/03 05:25:57;;;;;;;3.40;3.00;;;;;;;1.24;100.00;98935.25;104768;1259;65745;-53
2023/12/03 05:28:24;;;;;;;4.00;3.40;;;;;;;1.25;100.00;98936.65;104920;1266;72878;-54
2023/12/03 05:30:52;;;;;;;4.00;3.70;;;;;;;1.26;100.00;98942.45;104548;1260;61447;-53
2023/12/03 05:33:19;;;;;;;5.00;3.90;;;;;;;1.27;100.00;98947.58;105028;1253;61141;-53
2023/12/03 05:35:47;;;;;;;4.40;3.20;;;;;;;1.28;100.00;98953.02;104679;1257;74349;-53
2023/12/03 05:38:14;;;;;;;3.10;2.40;;;;;;;1.29;100.00;98963.92;104794;1255;66944;-54
2023/12/03 05:40:42;;;;;;;4.10;2.40;;;;;;;1.31;100.00;98972.20;104942;1259;72711;-52
2023/12/03 05:43:09;;;;;;;4.70;3.30;;;;;;;1.32;100.00;98975.71;105099;1260;60463;-53
2023/12/03 05:45:37;;;;;;;2.40;2.20;;;;;;;1.34;100.00;98973.02;105293;1253;60439;-53
2023/12/03 05:48:05;;;;;;;3.30;2.50;;;;;;;1.35;100.00;98971.77;105075;1254;72123;-52
2023/12/03 05:50:33;;;;;;;3.80;3.30;;;;;;;1.36;100.00;98980.77;105102;1267;65669;-52
2023/12/03 05:53:00;;;;;;;3.80;3.00;;;;;;;1.35;100.00;98979.19;104974;1257;71451;-53
2023/12/03 05:55:29;;;;;;;4.90;3.40;;;;;;;1.36;100.00;98981.98;104985;1253;62209;-52
2023/12/03 05:57:56;;;;;;;6.00;3.70;;;;;;;1.35;100.00;98996.33;104802;1259;60554;-53
2023/12/03 06:00:24;;;;;;;10.30;7.50;;;;;;;1.36;100.00;98999.47;105009;1254;72639;-53
2023/12/03 06:02:52;;;;;;;8.70;6.80;;;;;;;1.38;100.00;98998.02;105240;1259;66923;-53
2023/12/03 06:05:19;;;;;;;8.30;7.40;;;;;;;1.38;100.00;99008.95;104948;1259;73171;-50
2023/12/03 06:07:47;;;;;;;6.00;4.90;;;;;;;1.39;100.00;99014.25;105032;1262;60656;-53
2023/12/03 06:10:14;;;;;;;6.50;4.90;;;;;;;1.40;100.00;99022.55;105097;1254;60350;-53
2023/12/03 06:12:41;;;;;;;3.70;3.20;;;;;;;1.40;100.00;99031.73;104890;1260;73127;-55
2023/12/03 06:15:09;;;;;;;4.00;3.30;;;;;;;1.39;100.00;99041.46;104851;1254;66833;-53
2023/12/03 06:17:37;;;;;;;4.60;3.70;;;;;;;1.40;100.00;99048.36;105535;1258;73103;-53
2023/12/03 06:20:05;;;;;;;6.00;3.30;;;;;;;1.40;100.00;99058.77;105083;1257;61387;-51
2023/12/03 06:22:33;;;;;;;4.30;3.00;;;;;;;1.41;100.00;99059.48;106544;1254;60529;-53
2023/12/03 06:25:00;;;;;;;3.20;2.50;;;;;;;1.41;100.00;99062.13;104853;1261;73956;-54
2023/12/03 06:27:28;;;;;;;3.30;2.50;;;;;;;1.41;100.00;99066.55;105098;1254;65760;-55
2023/12/03 06:29:57;;;;;;;4.20;2.80;;;;;;;1.41;100.00;99062.13;105298;1255;71054;-54
2023/12/03 06:32:24;;;;;;;3.40;2.30;;;;;;;1.41;100.00;99063.71;104980;1258;60380;-50
2023/12/03 06:34:52;;;;;;;4.40;2.80;;;;;;;1.42;100.00;99071.30;104971;1254;60639;-52
2023/12/03 06:37:19;;;;;;;3.30;2.80;;;;;;;1.41;100.00;99075.20;104850;1258;76035;-53
2023/12/03 06:39:47;;;;;;;5.00;2.80;;;;;;;1.42;100.00;99082.97;104933;1258;66901;-52
2023/12/03 06:42:14;;;;;;;2.80;2.20;;;;;;;1.44;100.00;99086.29;106186;1254;71286;-51
2023/12/03 06:44:42;;;;;;;2.80;1.80;;;;;;;1.46;100.00;99094.00;105087;1254;60948;-50
2023/12/03 06:47:11;;;;;;;3.50;2.00;;;;;;;1.48;100.00;99094.84;104970;1255;60566;-55
2023/12/03 06:49:43;;;;;;;2.90;2.10;;;;;;;1.49;100.00;99096.95;105046;1261;73809;-54
2023/12/03 06:52:12;;;;;;;3.10;2.10;;;;;;;1.50;100.00;99110.02;108914;1254;67097;-52
2023/12/03 06:54:40;;;;;;;3.50;2.40;;;;;;;1.50;100.00;99117.61;109007;1254;70946;-52
2023/12/03 06:57:08;;;;;;;2.70;1.90;;;;;;;1.51;100.00;99122.20;109019;1253;60832;-53
2023/12/03 06:59:35;;;;;;;3.00;2.30;;;;;;;1.53;100.00;99128.33;108962;1254;61222;-53
2023/12/03 07:02:03;;;;;;;2.50;1.70;;;;;;;1.54;100.00;99130.96;108964;1254;74315;-54
2023/12/03 07:04:30;;;;;;;2.30;1.60;;;;;;;1.55;100.00;99133.06;109070;1253;64840;-53
2023/12/03 07:06:59;;;;;;;1.50;1.40;;;;;;;1.56;100.00;99137.64;108990;1253;71462;-53
2023/12/03 07:09:31;;;;;;;2.30;1.40;;;;;;;1.57;100.00;99146.46;108962;1254;59602;-53
2023/12/03 07:12:07;;;;;;;2.60;2.00;;;;;;;1.58;100.00;99149.82;109093;1253;60931;-53
2023/12/03 07:14:35;;;;;;;1.70;1.20;;;;;;;1.58;100.00;99155.83;108737;1257;74413;-51
2023/12/03 07:17:02;;;;;;;1.50;1.40;;;;;;;1.56;100.00;99163.98;104926;1254;67254;-52
2023/12/03 07:19:30;;;;;;;2.90;1.60;;;;;;;1.57;100.00;99166.10;104972;1258;71685;-54
2023/12/03 07:21:57;;;;;;;1.40;1.10;;;;;;;1.56;100.00;99172.30;104985;1260;60657;-54
2023/12/03 07:24:25;;;;;;;1.60;1.20;;;;;;;1.56;100.00;99173.54;104706;1257;60556;-53
2023/12/03 07:26:53;;;;;;;2.80;1.00;;;;;;;1.56;100.00;99176.54;107341;1254;72600;-54
2023/12/03 07:29:20;;;;;;;1.30;1.20;;;;;;;1.58;100.00;99175.98;104822;1257;67043;-48
2023/12/03 07:31:47;;;;;;;1.40;1.20;;;;;;;1.60;100.00;99176.13;105027;1257;72925;-53
2023/12/03 07:34:15;;;;;;;1.30;1.00;;;;;;;1.62;100.00;99176.79;104819;1251;61132;-53
2023/12/03 07:36:42;;;;;;;1.10;0.90;;;;;;;1.63;100.00;99186.46;107780;1256;58835;-52
2023/12/03 07:39:10;;;;;;;0.90;0.70;;;;;;;1.64;100.00;99195.30;104752;1259;73957;-53
2023/12/03 07:41:39;;;;;;;0.90;0.70;;;;;;;1.63;100.00;99200.61;109021;1253;65033;-54
2023/12/03 07:44:06;;;;;;;0.90;0.70;;;;;;;1.64;100.00;99208.56;105561;1254;74520;-53
2023/12/03 07:46:34;;;;;;;0.90;0.50;;;;;;;1.62;100.00;99212.83;105013;1257;61470;-53
2023/12/03 07:49:01;;;;;;;1.20;0.80;;;;;;;1.63;100.00;99222.19;104808;1254;60565;-53
2023/12/03 07:51:30;;;;;;;0.90;0.80;;;;;;;1.64;100.00;99231.55;104871;1254;72852;-54
2023/12/03 07:53:58;;;;;;;0.80;0.60;;;;;;;1.66;100.00;99236.48;106759;1253;66241;-52
2023/12/03 07:56:36;;;;;;;0.90;0.70;;;;;;;1.66;100.00;99241.77;105045;1260;73241;-54
2023/12/03 07:59:03;;;;;;;0.70;0.60;;;;;;;1.66;100.00;99250.44;104949;1255;60948;-53
2023/12/03 08:01:30;;;;;;;0.80;0.60;;;;;;;1.65;100.00;99248.50;104767;1255;61604;-53
2023/12/03 08:03:58;;;;;;;1.40;0.60;;;;;;;1.64;100.00;99252.59;104953;1254;72736;-53
2023/12/03 08:06:25;;;;;;;0.90;0.60;;;;;;;1.63;100.00;99251.39;104774;1254;65119;-53
2023/12/03 08:08:53;;;;;;;0.70;0.70;;;;;;;1.62;100.00;99253.34;105202;1253;74399;-51
2023/12/03 08:11:21;;;;;;;0.80;0.70;;;;;;;1.62;100.00;99258.81;105040;1257;62213;-53
2023/12/03 08:13:48;;;;;;;0.70;0.50;;;;;;;1.63;100.00;99260.22;104818;1253;60519;-51
2023/12/03 08:16:16;;;;;;;0.70;0.60;;;;;;;1.62;100.00;99257.40;104625;1261;73889;-52
2023/12/03 08:18:43;;;;;;;0.60;0.40;;;;;;;1.62;100.00;99265.36;104936;1254;65692;-54
2023/12/03 08:21:15;;;;;;;0.60;0.50;;;;;;;1.60;100.00;99269.15;104968;1253;72705;-56
2023/12/03 08:23:43;;;;;;;1.00;0.50;;;;;;;1.59;100.00;99276.58;106926;1257;60567;-52
2023/12/03 08:26:11;;;;;;;0.90;0.50;;;;;;;1.58;100.00;99280.50;105039;1254;60435;-54
2023/12/03 08:28:38;;;;;;;0.80;0.70;;;;;;;1.57;100.00;99286.35;104908;1253;74336;-54
2023/12/03 08:31:07;;;;;;;0.70;0.60;;;;;;;1.58;100.00;99296.23;104630;1254;66829;-53
2023/12/03 08:33:35;;;;;;;1.10;0.70;;;;;;;1.58;100.00;99301.90;105234;1254;72782;-55
2023/12/03 08:36:03;;;;;;;0.80;0.80;;;;;;;1.60;100.00;99310.01;105042;1254;60643;-54
2023/12/03 08:38:30;;;;;;;1.20;0.70;;;;;;;1.62;100.00;99317.55;104891;1253;60722;-57
2023/12/03 08:41:01;;;;;;;1.00;0.90;;;;;;;1.62;100.00;99329.04;104776;1258;74752;-52
2023/12/03 08:43:29;;;;;;;1.40;0.90;;;;;;;1.61;100.00;99339.48;105014;1255;65850;-54
2023/12/03 08:45:56;;;;;;;1.00;0.80;;;;;;;1.57;100.00;99349.13;105117;1254;71462;-54
2023/12/03 08:48:24;;;;;;;1.40;1.00;;;;;;;1.52;100.00;99347.45;105616;1254;60418;-53
2023/12/03 08:50:52;;;;;;;1.40;0.90;;;;;;;1.47;100.00;99349.83;105473;1253;63494;-54
2023/12/03 08:53:21;;;;;;;1.20;1.00;;;;;;;1.41;100.00;99346.59;105027;1254;73890;-52
2023/12/03 08:55:48;;;;;;;1.90;1.00;;;;;;;1.35;100.00;99356.08;104879;1253;67473;-53
2023/12/03 08:58:15;;;;;;;1.60;1.30;;;;;;;1.30;100.00;99358.09;104858;1257;73096;-54
2023/12/03 09:00:43;;;;;;;1.60;1.20;;;;;;;1.24;100.00;99359.80;104792;1253;61316;-51
2023/12/03 09:03:11;;;;;;;2.20;1.40;;;;;;;1.16;100.00;99368.06;104851;1254;60430;-55
2023/12/03 09:05:41;;;;;;;2.40;1.30;;;;;;;1.09;100.00;99372.95;104947;1254;72711;-53
2023/12/03 09:08:08;;;;;;;1.80;1.10;;;;;;;1.04;100.00;99373.73;104772;1258;65897;-52
2023/12/03 09:10:36;;;;;;;2.30;1.50;;;;;;;0.99;100.00;99381.07;104687;1253;71844;-52
2023/12/03 09:13:03;;;;;;;2.90;1.70;;;;;;;0.94;100.00;99387.48;104811;1254;60555;-54
2023/12/03 09:15:31;;;;;;;1.90;1.40;;;;;;;0.91;100.00;99399.74;104656;1255;60449;-52
2023/12/03 09:17:58;;;;;;;1.80;1.40;;;;;;;0.85;100.00;99409.54;104758;1257;74307;-54
2023/12/03 09:20:26;;;;;;;1.90;1.40;;;;;;;0.81;100.00;99410.30;104678;1257;66253;-53
2023/12/03 09:22:53;;;;;;;2.80;1.80;;;;;;;0.80;100.00;99421.09;104872;1257;72645;-53
2023/12/03 09:25:21;;;;;;;2.40;2.10;;;;;;;0.80;100.00;99425.34;104621;1258;60472;-52
2023/12/03 09:27:48;;;;;;;2.60;2.20;;;;;;;0.77;100.00;99431.38;104969;1253;60550;-52
2023/12/03 09:30:16;;;;;;;3.70;2.80;;;;;;;0.74;100.00;99431.08;104832;1256;73883;-53
2023/12/03 09:32:43;;;;;;;3.10;1.80;;;;;;;0.71;100.00;99439.75;104995;1254;66988;-52
2023/12/03 09:35:11;;;;;;;3.70;2.40;;;;;;;0.67;100.00;99444.76;104931;1259;73166;-54
2023/12/03 09:37:38;;;;;;;3.50;2.70;;;;;;;0.63;100.00;99439.68;103631;1254;3681045;-52
2023/12/03 09:41:42;;;;;;;5.00;3.40;;;;;;;0.58;100.00;99539.35;102186;1286;601267;-51
2023/12/03 09:44:19;;;;;;;4.70;3.40;;;;;;;0.55;100.00;99579.11;108253;1266;58178;-53
2023/12/03 09:46:49;;;;;;;5.70;3.70;;;;;;;0.53;100.00;99572.95;104055;1266;61147;-53
2023/12/03 09:49:17;;;;;;;4.90;3.40;;;;;;;0.47;100.00;99566.30;108277;1266;72328;-51
2023/12/03 09:51:45;;;;;;;3.80;3.40;;;;;;;0.39;100.00;99562.69;108065;1266;65553;-52
2023/12/03 09:54:12;;;;;;;4.90;3.60;;;;;;;0.33;100.00;99558.16;104995;1263;3709208;-52
2023/12/03 09:56:40;;;;;;;6.10;3.50;;;;;;;0.30;100.00;99563.48;106075;1264;60856;-51
2023/12/03 09:59:09;;;;;;;5.20;3.90;;;;;;;0.28;100.00;99560.85;104045;1268;60481;-52
2023/12/03 10:01:38;;;;;;;7.00;3.80;;;;;;;0.25;100.00;99567.41;104211;1264;71055;-53
2023/12/03 10:04:06;;;;;;;7.30;3.90;;;;;;;0.23;100.00;99566.91;105904;1263;65983;-50
2023/12/03 10:06:41;;;;;;;6.90;4.50;;;;;;;0.18;100.00;99555.65;104194;1265;73196;-51
2023/12/03 10:09:10;;;;;;;7.40;4.90;;;;;;;0.12;100.00;99566.30;108350;1264;61034;-54
2023/12/03 10:11:41;;;;;;;7.90;5.30;;;;;;;0.08;100.00;99565.46;108280;1264;59147;-50
2023/12/03 10:14:09;;;;;;;6.80;3.90;;;;;;;0.05;100.00;99573.44;108335;1263;74540;-51
2023/12/03 10:16:36;;;;;;;8.70;4.80;;;;;;;0.04;100.00;99571.67;108432;1260;66876;-52
2023/12/03 10:19:03;;;;;;;7.90;5.10;;;;;;;0.02;100.00;99576.27;108647;1259;72744;-52
2023/12/03 10:21:31;;;;;;;7.70;4.30;;;;;;;-0.02;100.00;99573.14;106519;1262;60501;-54
2023/12/03 10:24:00;;;;;;;6.20;3.80;;;;;;;-0.02;100.00;99575.26;104136;1265;59729;-52
2023/12/03 10:26:28;;;;;;;6.50;4.30;;;;;;;-0.04;100.00;99582.33;104622;1263;73060;-53
2023/12/03 10:28:56;;;;;;;5.70;4.00;;;;;;;-0.07;100.00;99583.23;104339;1260;66153;-51
2023/12/03 10:31:25;;;;;;;5.00;3.60;;;;;;;-0.11;100.00;99586.63;104042;1263;71575;-53
2023/12/03 10:33:52;;;;;;;8.60;5.20;;;;;;;-0.16;100.00;99598.65;104080;1261;63070;-52
2023/12/03 10:36:20;;;;;;;6.40;3.90;;;;;;;-0.21;100.00;99600.81;104505;1262;59647;-52
2023/12/03 10:38:47;;;;;;;8.20;4.70;;;;;;;-0.24;100.00;99595.89;104401;1262;73579;-51
2023/12/03 10:41:15;;;;;;;6.50;4.10;;;;;;;-0.25;100.00;99598.02;104342;1262;65765;-52
2023/12/03 10:43:42;;;;;;;12.30;4.80;;;;;;;-0.24;100.00;99604.17;104316;1265;72428;-50
2023/12/03 10:46:11;;;;;;;10.40;6.00;;;;;;;-0.24;100.00;99603.46;104406;1260;59715;-50
2023/12/03 10:48:39;;;;;;;8.00;5.40;;;;;;;-0.25;100.00;99607.02;104140;1261;60317;-53
2023/12/03 10:51:08;;;;;;;7.00;5.10;;;;;;;-0.28;100.00;99604.04;107635;1260;73227;-51
2023/12/03 10:53:36;;;;;;;7.60;5.30;;;;;;;-0.32;100.00;99606.35;104107;1260;67595;-53
2023/12/03 10:56:06;;;;;;;9.00;5.20;;;;;;;-0.38;100.00;99620.66;104509;1260;71435;-52
2023/12/03 10:58:36;;;;;;;6.80;5.50;;;;;;;-0.44;100.00;99619.66;104609;1262;59737;-52
2023/12/03 11:01:20;;;;;;;6.60;4.60;;;;;;;-0.49;100.00;99624.44;104446;1260;60561;-50
2023/12/03 11:04:13;;;;;;;7.70;5.00;;;;;;;-0.51;100.00;99632.39;104489;1257;73108;-50
2023/12/03 11:06:41;;;;;;;8.70;5.10;;;;;;;-0.50;100.00;99634.84;104388;1262;65811;-51
2023/12/03 11:09:08;;;;;;;8.80;5.50;;;;;;;-0.51;100.00;99632.55;104626;1262;71307;-50
2023/12/03 11:11:37;;;;;;;7.30;4.20;;;;;;;-0.49;100.00;99645.95;104425;1256;61591;-49
2023/12/03 11:14:05;;;;;;;8.60;5.30;;;;;;;-0.47;100.00;99648.76;104706;1259;59579;-51
2023/12/03 11:16:53;;;;;;;6.60;5.00;;;;;;;-0.46;100.00;99657.40;104867;1256;73485;-50
2023/12/03 11:19:20;;;;;;;7.10;4.90;;;;;;;-0.46;100.00;99663.20;104628;1256;67431;-51
2023/12/03 11:22:06;;;;;;;6.00;4.20;;;;;;;-0.51;100.00;99666.77;104544;1263;73124;-52
2023/12/03 11:24:56;;;;;;;7.40;4.20;;;;;;;-0.56;100.00;99679.13;104473;1256;59826;-50
2023/12/03 11:27:26;;;;;;;4.80;3.50;;;;;;;-0.59;100.00;99690.05;104776;1259;59652;-51